Terminal Aerodrome Forecast
Issued by NWS Detroit/Pontiac, MI

Home | Current Version | Previous Version | Text Only | Print | Product List | Glossary On
Versions: 1 2 3 4 5 6 7 8 9 10 11 12 13 14 15
745
FTUS43 KDTX 171120
TAFFNT
TAF
KFNT 171120Z 1712/1812 14010KT 6SM -SHRA BKN035 OVC060
      TEMPO 1712/1714 3SM SHRA SCT016 BKN024 OVC035
     FM171600 19010KT 5SM -SHRA BKN018 OVC040
     FM171900 20011G19KT P6SM BKN030 BKN150
      TEMPO 1721/1724 1 1/2SM TSRA BKN026CB OVC080
     FM180000 22008KT P6SM SCT030 BKN045
     FM180800 24010KT P6SM BKN020=

USA.gov is the U.S. government's official web portal to all federal, state and local government web resources and services.